Time;durP1;ratioP1;P1;durP2;ratioP2;P2;SDS_P1;SDS_P2;PMS_P1;PMS_P2;Temp;Humidity;BMP_temperature;BMP_pressure;BME280_temperature;BME280_humidity;BME280_pressure;Samples;Min_cycle;Max_cycle;Signal;HPM_P1;HPM_P2
2022/10/10 00:00:59;;;;;;;5.37;2.67;;;9.10;99.90;;;;;;5076204;28;20503;-81
2022/10/10 00:03:26;;;;;;;3.80;2.60;;;9.10;99.90;;;;;;5076293;28;20950;-81
2022/10/10 00:05:54;;;;;;;3.23;2.47;;;9.10;99.90;;;;;;5075695;28;20499;-82
2022/10/10 00:08:21;;;;;;;3.80;2.20;;;9.10;99.90;;;;;;5084490;22;21030;-79
2022/10/10 00:10:48;;;;;;;6.30;2.43;;;9.20;99.90;;;;;;5047594;28;20465;-80
2022/10/10 00:13:15;;;;;;;3.97;2.50;;;9.20;99.90;;;;;;5053335;28;20450;-79
2022/10/10 00:15:42;;;;;;;3.10;2.40;;;9.10;99.90;;;;;;5044465;28;20443;-80
2022/10/10 00:18:09;;;;;;;3.10;2.00;;;9.10;99.90;;;;;;5046275;28;20470;-80
2022/10/10 00:20:36;;;;;;;3.90;2.03;;;9.10;99.90;;;;;;5052646;28;20449;-79
2022/10/10 00:23:04;;;;;;;3.87;2.60;;;9.20;99.90;;;;;;5043045;28;20463;-81
2022/10/10 00:25:31;;;;;;;4.30;2.50;;;9.20;99.90;;;;;;5051910;28;20489;-80
2022/10/10 00:28:01;;;;;;;6.00;1.70;;;9.20;99.90;;;;;;5048373;28;20885;-78
2022/10/10 00:30:28;;;;;;;3.50;2.10;;;9.20;99.90;;;;;;5054260;28;20457;-78
2022/10/10 00:32:55;;;;;;;3.13;1.93;;;9.20;99.90;;;;;;5054396;28;20452;-79
2022/10/10 00:35:22;;;;;;;2.20;1.87;;;9.20;99.90;;;;;;5054942;28;20450;-80
2022/10/10 00:37:48;;;;;;;3.00;2.33;;;9.20;99.90;;;;;;5054285;28;20483;-79
2022/10/10 00:40:17;;;;;;;6.10;1.83;;;9.30;99.90;;;;;;5052651;28;20459;-78
2022/10/10 00:42:43;;;;;;;3.90;2.10;;;9.30;99.90;;;;;;5038590;28;20457;-79
2022/10/10 00:45:30;;;;;;;3.07;1.90;;;9.30;99.90;;;;;;5055237;28;20471;-79
2022/10/10 00:48:01;;;;;;;3.90;2.13;;;9.20;99.90;;;;;;5057011;28;20465;-78
2022/10/10 00:50:29;;;;;;;3.50;2.00;;;9.20;99.90;;;;;;5056077;28;20477;-80
2022/10/10 00:52:57;;;;;;;4.10;1.93;;;9.30;99.90;;;;;;5054237;28;20541;-79
2022/10/10 00:55:25;;;;;;;4.33;2.10;;;9.30;99.90;;;;;;5053590;28;20518;-80
2022/10/10 00:57:52;;;;;;;2.43;1.70;;;9.30;99.90;;;;;;5037846;28;20477;-79
2022/10/10 01:00:20;;;;;;;4.33;1.83;;;9.30;99.90;;;;;;5046936;28;20457;-78
2022/10/10 01:02:47;;;;;;;3.53;1.87;;;9.40;99.90;;;;;;5053628;28;20450;-77
2022/10/10 01:05:14;;;;;;;3.67;1.83;;;9.40;99.90;;;;;;5052892;28;20541;-79
2022/10/10 01:07:41;;;;;;;4.70;1.80;;;9.40;99.90;;;;;;5053327;28;20487;-78
2022/10/10 01:10:12;;;;;;;2.50;1.60;;;9.40;99.90;;;;;;5053035;28;20451;-78
2022/10/10 01:12:53;;;;;;;2.87;1.80;;;9.40;99.90;;;;;;5053895;28;20832;-79
2022/10/10 01:15:29;;;;;;;4.30;1.83;;;9.40;99.90;;;;;;5062285;28;20456;-79
2022/10/10 01:18:05;;;;;;;4.87;1.93;;;9.40;99.90;;;;;;5059271;28;20474;-80
2022/10/10 01:20:58;;;;;;;3.50;1.90;;;9.40;99.90;;;;;;5055699;28;20458;-79
2022/10/10 01:24:13;;;;;;;2.20;1.50;;;9.40;99.90;;;;;;5053399;28;20529;-80
2022/10/10 01:27:07;;;;;;;3.50;1.90;;;9.50;99.90;;;;;;5049411;28;20573;-78
2022/10/10 01:29:39;;;;;;;2.50;1.50;;;9.50;99.90;;;;;;5052788;28;20484;-79
2022/10/10 01:32:11;;;;;;;5.43;1.90;;;9.50;99.90;;;;;;5052166;28;20468;-78
2022/10/10 01:34:46;;;;;;;2.93;1.70;;;9.50;99.90;;;;;;5053025;28;20453;-79
2022/10/10 01:37:19;;;;;;;3.40;1.70;;;9.60;99.90;;;;;;5053152;28;20454;-79
2022/10/10 01:39:55;;;;;;;3.63;1.60;;;9.60;99.90;;;;;;5052612;28;20830;-79
2022/10/10 01:42:28;;;;;;;2.50;1.87;;;9.60;99.90;;;;;;5053315;28;20462;-78
2022/10/10 01:44:56;;;;;;;5.10;2.30;;;9.70;99.90;;;;;;5052669;28;20451;-77
2022/10/10 01:47:24;;;;;;;2.47;1.50;;;9.70;99.90;;;;;;5052483;28;20483;-78
2022/10/10 01:49:54;;;;;;;3.10;2.37;;;9.70;99.90;;;;;;5052766;28;20461;-79
2022/10/10 01:52:29;;;;;;;2.70;1.60;;;9.80;99.90;;;;;;5052148;28;20454;-78
2022/10/10 01:55:20;;;;;;;4.20;1.93;;;9.80;99.90;;;;;;5052196;28;20457;-77
2022/10/10 01:57:59;;;;;;;2.40;1.70;;;9.80;99.90;;;;;;5052532;28;20471;-80
2022/10/10 02:00:27;;;;;;;4.37;1.83;;;9.90;99.90;;;;;;5052020;28;20460;-79
2022/10/10 02:02:58;;;;;;;3.80;2.07;;;9.80;99.90;;;;;;5053285;28;20469;-79
2022/10/10 02:05:32;;;;;;;3.33;1.90;;;9.80;99.90;;;;;;5052613;28;20458;-78
2022/10/10 02:08:05;;;;;;;3.37;1.93;;;9.90;99.90;;;;;;5051796;28;20503;-78
2022/10/10 02:10:35;;;;;;;2.67;1.50;;;9.90;99.90;;;;;;5052620;28;20455;-79
2022/10/10 02:13:04;;;;;;;3.30;1.80;;;9.90;99.90;;;;;;5056975;28;20457;-78
2022/10/10 02:15:38;;;;;;;4.53;2.10;;;9.90;99.90;;;;;;5056202;28;20455;-78
2022/10/10 02:18:07;;;;;;;3.10;1.97;;;9.90;99.90;;;;;;5044971;28;20467;-78
2022/10/10 02:20:34;;;;;;;3.50;1.77;;;9.90;99.90;;;;;;5052307;28;20451;-80
2022/10/10 02:23:01;;;;;;;4.60;1.87;;;9.90;99.90;;;;;;5052449;28;20477;-79
2022/10/10 02:25:31;;;;;;;6.10;2.27;;;9.90;99.90;;;;;;5051689;28;20444;-78
2022/10/10 02:28:07;;;;;;;2.60;1.67;;;9.80;99.90;;;;;;5052097;28;20496;-79
2022/10/10 02:30:39;;;;;;;5.20;2.20;;;9.90;99.90;;;;;;5052362;28;20858;-79
2022/10/10 02:33:08;;;;;;;3.43;1.93;;;9.90;99.90;;;;;;5052427;28;20980;-78
2022/10/10 02:35:38;;;;;;;2.03;1.40;;;9.90;99.90;;;;;;5052022;28;20463;-78
2022/10/10 02:38:09;;;;;;;2.73;1.67;;;9.90;99.90;;;;;;5052157;28;20980;-77
2022/10/10 02:40:37;;;;;;;5.20;1.60;;;9.90;99.90;;;;;;5052579;28;20454;-79
2022/10/10 02:43:07;;;;;;;4.00;2.00;;;9.90;99.90;;;;;;5052395;28;20459;-79
2022/10/10 02:45:35;;;;;;;2.57;1.80;;;9.90;99.90;;;;;;5052180;28;20839;-77
2022/10/10 02:48:03;;;;;;;2.67;2.07;;;9.80;99.90;;;;;;5051771;28;20486;-79
2022/10/10 02:50:31;;;;;;;7.67;2.50;;;9.90;99.90;;;;;;5052121;28;20462;-80
2022/10/10 02:52:58;;;;;;;3.43;2.00;;;9.90;99.90;;;;;;5052216;28;20444;-78
2022/10/10 02:55:25;;;;;;;4.50;2.00;;;9.90;99.90;;;;;;5052409;28;20455;-79
2022/10/10 02:57:52;;;;;;;2.57;1.63;;;9.90;99.90;;;;;;5052047;28;20468;-78
2022/10/10 03:00:19;;;;;;;5.87;2.07;;;9.90;99.90;;;;;;5052013;28;20502;-79
2022/10/10 03:02:47;;;;;;;2.70;1.67;;;9.90;99.90;;;;;;5054989;28;20464;-79
2022/10/10 03:05:14;;;;;;;4.10;2.27;;;9.90;99.90;;;;;;5055434;28;20481;-79
2022/10/10 03:07:41;;;;;;;3.70;2.20;;;10.00;99.90;;;;;;5055604;28;20495;-79
2022/10/10 03:10:09;;;;;;;4.40;2.23;;;10.00;99.90;;;;;;5055448;28;20455;-80
2022/10/10 03:12:36;;;;;;;2.47;1.50;;;9.90;99.90;;;;;;5056927;28;20480;-79
2022/10/10 03:15:03;;;;;;;3.43;2.43;;;9.90;99.90;;;;;;5056895;28;20466;-78
2022/10/10 03:17:30;;;;;;;2.73;1.60;;;9.90;99.90;;;;;;5051855;28;20448;-79
2022/10/10 03:19:58;;;;;;;4.30;2.07;;;9.90;99.90;;;;;;5047062;28;20454;-79
2022/10/10 03:22:25;;;;;;;3.43;2.30;;;9.90;99.90;;;;;;5057649;28;20951;-79
2022/10/10 03:24:52;;;;;;;3.80;1.60;;;9.90;99.90;;;;;;5058341;28;20454;-80
2022/10/10 03:27:19;;;;;;;3.00;2.10;;;9.90;99.90;;;;;;5062730;28;20501;-79
2022/10/10 03:29:45;;;;;;;2.60;1.80;;;9.90;99.90;;;;;;5055662;28;20455;-79
2022/10/10 03:32:12;;;;;;;5.83;1.90;;;9.90;99.90;;;;;;5056023;28;20465;-80
2022/10/10 03:34:39;;;;;;;4.37;2.20;;;9.90;99.90;;;;;;5055391;28;20464;-78
2022/10/10 03:37:07;;;;;;;3.30;1.93;;;9.90;99.90;;;;;;5055739;28;20451;-79
2022/10/10 03:39:34;;;;;;;3.90;2.00;;;10.00;99.90;;;;;;5055265;28;20575;-80
2022/10/10 03:42:01;;;;;;;2.83;2.00;;;9.90;99.90;;;;;;5056566;28;20546;-79
2022/10/10 03:44:28;;;;;;;5.60;1.50;;;9.90;99.90;;;;;;5055301;28;20487;-77
2022/10/10 03:46:54;;;;;;;3.17;1.80;;;9.90;99.90;;;;;;5055377;28;20856;-80
2022/10/10 03:49:21;;;;;;;2.60;1.63;;;10.00;99.90;;;;;;5055015;28;20480;-78
2022/10/10 03:51:48;;;;;;;4.03;2.20;;;10.00;99.90;;;;;;5055151;28;20834;-79
2022/10/10 03:54:16;;;;;;;3.23;1.67;;;10.00;99.90;;;;;;5055914;28;20457;-78
2022/10/10 03:56:43;;;;;;;3.80;1.60;;;10.00;99.90;;;;;;5055447;28;20461;-78
2022/10/10 03:59:10;;;;;;;3.33;1.97;;;10.00;99.90;;;;;;5054369;28;20475;-78
2022/10/10 04:01:37;;;;;;;4.00;1.60;;;10.00;99.90;;;;;;5055578;28;20464;-80
2022/10/10 04:04:04;;;;;;;2.70;1.60;;;10.00;99.90;;;;;;5055498;28;20993;-77
2022/10/10 04:06:31;;;;;;;2.97;1.87;;;10.00;99.90;;;;;;5054980;28;20490;-80
2022/10/10 04:08:58;;;;;;;6.23;2.17;;;10.00;99.90;;;;;;5055121;28;20574;-77
2022/10/10 04:11:26;;;;;;;4.20;1.70;;;9.90;99.90;;;;;;5055021;28;20459;-80
2022/10/10 04:13:53;;;;;;;3.00;2.17;;;9.90;99.90;;;;;;5055674;28;20469;-78
2022/10/10 04:16:20;;;;;;;3.70;2.20;;;10.00;99.90;;;;;;5054747;28;20451;-79
2022/10/10 04:18:47;;;;;;;2.60;1.53;;;10.00;99.90;;;;;;5053987;28;20473;-78
2022/10/10 04:21:14;;;;;;;10.30;2.40;;;10.00;99.90;;;;;;5046061;28;20455;-79
2022/10/10 04:23:40;;;;;;;3.57;1.80;;;10.00;99.90;;;;;;5051041;28;20501;-79
2022/10/10 04:26:07;;;;;;;2.67;1.87;;;10.00;99.90;;;;;;5054495;28;20836;-78
2022/10/10 04:28:36;;;;;;;3.80;1.87;;;10.00;99.90;;;;;;5065229;28;20499;-81
2022/10/10 04:31:02;;;;;;;4.23;2.40;;;10.00;99.90;;;;;;5076330;28;20497;-81
2022/10/10 04:33:29;;;;;;;3.77;2.17;;;9.90;99.90;;;;;;5075444;28;20498;-80
2022/10/10 04:35:56;;;;;;;3.50;2.20;;;10.00;99.90;;;;;;5056657;28;20545;-80
2022/10/10 04:38:23;;;;;;;2.83;1.90;;;10.00;99.90;;;;;;5054292;28;20475;-80
2022/10/10 04:40:50;;;;;;;3.83;2.20;;;10.00;99.90;;;;;;5054515;28;20455;-79
2022/10/10 04:43:17;;;;;;;4.40;2.00;;;10.00;99.90;;;;;;5054260;28;20459;-79
2022/10/10 04:45:46;;;;;;;3.03;1.93;;;9.90;99.90;;;;;;5054596;28;20451;-80
2022/10/10 04:48:13;;;;;;;3.77;2.10;;;9.90;99.90;;;;;;5053804;28;20496;-80
2022/10/10 04:50:40;;;;;;;5.10;2.63;;;9.90;99.90;;;;;;5054258;28;20482;-79
2022/10/10 04:53:07;;;;;;;2.30;1.70;;;10.00;99.90;;;;;;5054400;28;20959;-79
2022/10/10 04:55:33;;;;;;;5.27;2.30;;;9.90;99.90;;;;;;5054594;28;20467;-79
2022/10/10 04:58:00;;;;;;;4.63;2.50;;;10.00;99.90;;;;;;5054192;28;20623;-79
2022/10/10 05:00:27;;;;;;;4.30;2.30;;;10.00;99.90;;;;;;5053146;28;20462;-80
2022/10/10 05:02:55;;;;;;;3.90;2.17;;;10.00;99.90;;;;;;5050748;28;20459;-78
2022/10/10 05:05:22;;;;;;;6.27;2.93;;;10.00;99.90;;;;;;5057433;28;20452;-80
2022/10/10 05:07:49;;;;;;;2.80;2.50;;;10.00;99.90;;;;;;5052859;28;20940;-78
2022/10/10 05:10:16;;;;;;;4.10;2.43;;;10.00;99.90;;;;;;5053494;28;20452;-79
2022/10/10 05:12:43;;;;;;;5.27;2.60;;;10.00;99.90;;;;;;5053852;28;20458;-80
2022/10/10 05:15:11;;;;;;;4.43;3.20;;;10.00;99.90;;;;;;5035363;28;20495;-78
2022/10/10 05:17:38;;;;;;;6.53;2.03;;;10.00;99.90;;;;;;5047878;28;20471;-79
2022/10/10 05:20:07;;;;;;;5.03;2.23;;;10.00;99.90;;;;;;5053355;28;20835;-78
2022/10/10 05:22:34;;;;;;;3.57;2.00;;;10.00;99.90;;;;;;5053590;28;20942;-78
2022/10/10 05:25:01;;;;;;;4.63;2.63;;;10.00;99.90;;;;;;5053824;28;20493;-81
2022/10/10 05:27:29;;;;;;;4.30;2.40;;;10.00;99.90;;;;;;5037357;28;21038;-79
2022/10/10 05:29:55;;;;;;;2.93;2.00;;;10.00;99.90;;;;;;5054490;28;20459;-79
2022/10/10 05:32:23;;;;;;;4.60;2.43;;;10.00;99.90;;;;;;5048587;28;20463;-80
2022/10/10 05:34:50;;;;;;;4.90;2.43;;;10.10;99.90;;;;;;5047037;28;20455;-81
2022/10/10 05:37:21;;;;;;;4.00;2.40;;;10.10;99.90;;;;;;5054017;28;20470;-78
2022/10/10 05:39:48;;;;;;;3.17;2.10;;;10.10;99.90;;;;;;5044377;28;20465;-80
2022/10/10 05:42:15;;;;;;;4.70;2.40;;;10.10;99.90;;;;;;5038821;28;20518;-81
2022/10/10 05:44:42;;;;;;;3.17;2.00;;;10.10;99.90;;;;;;5054388;28;20452;-80
2022/10/10 05:47:09;;;;;;;2.80;2.23;;;10.10;99.90;;;;;;5053890;28;20494;-81
2022/10/10 05:49:36;;;;;;;3.33;2.23;;;10.20;99.90;;;;;;5046858;28;20872;-78
2022/10/10 05:52:03;;;;;;;3.80;2.50;;;10.20;99.90;;;;;;5049188;28;20464;-80
2022/10/10 05:54:31;;;;;;;2.50;2.00;;;10.10;99.90;;;;;;5048775;28;20465;-82
2022/10/10 05:56:57;;;;;;;5.37;2.43;;;10.10;99.90;;;;;;5049561;28;20452;-80
2022/10/10 05:59:25;;;;;;;4.30;2.30;;;10.10;99.90;;;;;;5051673;28;20475;-81
2022/10/10 06:01:51;;;;;;;5.17;2.63;;;10.10;99.90;;;;;;5050400;28;20458;-80
2022/10/10 06:04:18;;;;;;;3.67;2.23;;;10.10;99.90;;;;;;5048570;28;20528;-81
2022/10/10 06:06:45;;;;;;;3.60;2.47;;;10.20;99.90;;;;;;5045300;28;20463;-80
2022/10/10 06:09:14;;;;;;;4.93;2.43;;;10.20;99.90;;;;;;5049527;28;21047;-81
2022/10/10 06:11:43;;;;;;;5.27;2.60;;;10.20;99.90;;;;;;5051103;28;20454;-81
2022/10/10 06:14:10;;;;;;;5.47;3.10;;;10.20;99.90;;;;;;5052567;28;20449;-80
2022/10/10 06:16:38;;;;;;;4.43;2.40;;;10.20;99.90;;;;;;5051283;28;20450;-81
2022/10/10 06:19:05;;;;;;;5.80;2.93;;;10.30;99.90;;;;;;5064572;28;20471;-79
2022/10/10 06:21:33;;;;;;;5.17;2.20;;;10.30;99.90;;;;;;5069249;28;20540;-80
2022/10/10 06:23:59;;;;;;;3.73;2.40;;;10.40;99.90;;;;;;5074541;28;20483;-81
2022/10/10 06:26:26;;;;;;;3.93;2.60;;;10.40;99.90;;;;;;5075101;28;20519;-80
2022/10/10 06:28:54;;;;;;;4.07;2.33;;;10.40;99.90;;;;;;5066857;28;20495;-81
2022/10/10 06:31:22;;;;;;;4.13;2.53;;;10.40;99.90;;;;;;5058285;28;20690;-80
2022/10/10 06:33:48;;;;;;;5.43;3.10;;;10.50;99.90;;;;;;5054738;28;20458;-79
2022/10/10 06:36:16;;;;;;;3.90;2.20;;;10.50;99.90;;;;;;5054480;28;20854;-78
2022/10/10 06:38:44;;;;;;;6.53;2.80;;;10.60;99.90;;;;;;5058535;28;20800;-79
2022/10/10 06:41:12;;;;;;;4.47;2.20;;;10.70;99.90;;;;;;5057335;28;20455;-81
2022/10/10 06:43:40;;;;;;;5.40;2.77;;;10.70;99.90;;;;;;5057332;28;20823;-79
2022/10/10 06:46:09;;;;;;;3.23;2.53;;;10.80;99.90;;;;;;5057289;28;20841;-80
2022/10/10 06:48:36;;;;;;;6.20;2.53;;;10.80;99.90;;;;;;5056339;28;20919;-79
2022/10/10 06:51:05;;;;;;;4.07;2.40;;;10.90;99.90;;;;;;5057462;28;20458;-78
2022/10/10 06:53:33;;;;;;;4.70;2.43;;;10.90;99.90;;;;;;5056801;28;20464;-79
2022/10/10 06:56:00;;;;;;;10.80;3.40;;;10.90;99.90;;;;;;5057147;28;20979;-78
2022/10/10 06:58:28;;;;;;;4.00;2.70;;;10.90;99.90;;;;;;5055494;28;20478;-80
2022/10/10 07:00:57;;;;;;;6.37;2.53;;;11.00;99.90;;;;;;5036385;28;20453;-79
2022/10/10 07:03:26;;;;;;;6.73;2.67;;;11.00;99.90;;;;;;5054848;28;20466;-78
2022/10/10 07:05:54;;;;;;;9.40;3.23;;;11.10;99.90;;;;;;5056197;28;20463;-79
2022/10/10 07:08:21;;;;;;;4.87;2.33;;;11.20;99.90;;;;;;5055605;28;20501;-79
2022/10/10 07:10:47;;;;;;;4.63;2.50;;;11.30;99.90;;;;;;5059724;28;20452;-80
2022/10/10 07:13:15;;;;;;;3.07;2.77;;;11.30;99.90;;;;;;5059862;28;20461;-78
2022/10/10 07:15:42;;;;;;;3.80;2.40;;;11.40;99.90;;;;;;5059250;28;20462;-79
2022/10/10 07:18:09;;;;;;;8.50;2.70;;;11.40;99.90;;;;;;5057503;28;20464;-81
2022/10/10 07:20:39;;;;;;;3.50;2.60;;;11.50;99.90;;;;;;5058844;28;20524;-80
2022/10/10 07:23:05;;;;;;;7.03;3.30;;;11.60;99.90;;;;;;5058932;28;20462;-80
2022/10/10 07:25:33;;;;;;;4.90;2.77;;;11.70;99.90;;;;;;5057713;28;20459;-79
2022/10/10 07:27:59;;;;;;;7.07;3.50;;;11.70;99.90;;;;;;5056588;28;21015;-80
2022/10/10 07:30:26;;;;;;;4.63;2.57;;;11.90;99.90;;;;;;5057374;28;20451;-78
2022/10/10 07:32:54;;;;;;;7.20;2.83;;;12.00;99.90;;;;;;5057625;28;20460;-80
2022/10/10 07:35:21;;;;;;;7.17;2.50;;;12.10;99.90;;;;;;5057757;28;20450;-79
2022/10/10 07:37:54;;;;;;;3.67;2.40;;;12.20;99.90;;;;;;5056515;28;20908;-78
2022/10/10 07:40:20;;;;;;;6.23;2.57;;;12.30;99.90;;;;;;5058338;28;20490;-78
2022/10/10 07:42:47;;;;;;;4.97;2.60;;;12.40;99.90;;;;;;5057567;28;20445;-80
2022/10/10 07:45:14;;;;;;;4.63;3.00;;;12.50;99.90;;;;;;5058151;28;20533;-80
2022/10/10 07:47:41;;;;;;;5.53;2.47;;;12.60;99.90;;;;;;5057040;28;20571;-79
2022/10/10 07:50:10;;;;;;;5.60;3.40;;;12.60;99.90;;;;;;5057263;28;20452;-81
2022/10/10 07:52:37;;;;;;;6.10;3.37;;;12.70;99.90;;;;;;5058887;28;20580;-79
2022/10/10 07:55:07;;;;;;;5.60;2.40;;;12.90;99.90;;;;;;5057286;28;20459;-79
2022/10/10 07:57:35;;;;;;;5.30;3.13;;;13.00;99.90;;;;;;5056669;28;20461;-79
2022/10/10 08:00:02;;;;;;;5.27;2.97;;;13.10;99.90;;;;;;5057314;28;20459;-80
2022/10/10 08:02:29;;;;;;;4.20;3.07;;;13.10;99.90;;;;;;5057504;28;20996;-81
2022/10/10 08:04:56;;;;;;;4.80;2.93;;;13.30;99.90;;;;;;5058516;28;20455;-80
2022/10/10 08:07:23;;;;;;;6.63;2.43;;;13.30;99.90;;;;;;5059302;28;20454;-82
2022/10/10 08:09:49;;;;;;;4.80;2.93;;;13.30;99.90;;;;;;5058630;28;20461;-80
2022/10/10 08:12:18;;;;;;;8.20;3.23;;;13.40;99.90;;;;;;5060590;28;20464;-80
2022/10/10 08:14:44;;;;;;;5.63;2.40;;;13.40;99.90;;;;;;5060727;28;20490;-79
2022/10/10 08:17:11;;;;;;;5.97;2.97;;;13.50;99.90;;;;;;5061706;28;20546;-81
2022/10/10 08:19:38;;;;;;;5.60;2.70;;;13.60;99.90;;;;;;5059363;28;20468;-80
2022/10/10 08:22:05;;;;;;;3.93;2.70;;;13.70;99.90;;;;;;5060816;28;20461;-81
2022/10/10 08:24:32;;;;;;;4.87;2.30;;;13.70;99.90;;;;;;5060628;28;20455;-80
2022/10/10 08:26:59;;;;;;;6.80;2.90;;;13.80;99.90;;;;;;5061333;28;20454;-79
2022/10/10 08:29:27;;;;;;;8.40;2.73;;;13.90;99.90;;;;;;5059524;28;21021;-80
2022/10/10 08:31:54;;;;;;;8.10;3.07;;;14.00;99.90;;;;;;5060877;28;20834;-80
2022/10/10 08:34:21;;;;;;;4.80;2.70;;;14.00;99.90;;;;;;5061091;28;20541;-79
2022/10/10 08:36:47;;;;;;;5.60;3.43;;;14.10;99.90;;;;;;5060425;28;20538;-80
2022/10/10 08:39:15;;;;;;;3.97;2.53;;;14.10;99.90;;;;;;5058990;28;20920;-80
2022/10/10 08:41:48;;;;;;;5.80;3.07;;;14.20;99.90;;;;;;5061080;28;20461;-80
2022/10/10 08:44:21;;;;;;;8.50;2.70;;;14.20;99.90;;;;;;5061457;28;20459;-80
2022/10/10 08:46:53;;;;;;;9.20;2.63;;;14.20;99.90;;;;;;5062052;28;20445;-78
2022/10/10 08:49:26;;;;;;;5.00;2.97;;;14.30;99.90;;;;;;5061662;28;20555;-80
2022/10/10 08:52:01;;;;;;;5.53;2.77;;;14.40;99.90;;;;;;5062183;28;20451;-79
2022/10/10 08:54:29;;;;;;;5.93;3.20;;;14.40;99.90;;;;;;5061256;28;20538;-80
2022/10/10 08:57:00;;;;;;;4.93;2.93;;;14.50;99.90;;;;;;5062031;28;20454;-81
2022/10/10 08:59:31;;;;;;;4.73;2.33;;;14.60;99.90;;;;;;5060230;28;20482;-80
2022/10/10 09:02:18;;;;;;;5.23;2.60;;;14.70;99.90;;;;;;5061122;28;20462;-80
2022/10/10 09:04:45;;;;;;;5.70;2.93;;;14.70;99.90;;;;;;5059659;28;20535;-81
2022/10/10 09:07:24;;;;;;;5.60;3.00;;;14.80;99.90;;;;;;5062081;28;20494;-81
2022/10/10 09:10:00;;;;;;;9.47;2.83;;;14.90;99.90;;;;;;5061525;28;20924;-80
2022/10/10 09:12:39;;;;;;;9.90;2.57;;;15.00;99.90;;;;;;5042369;28;20446;-80
2022/10/10 09:15:14;;;;;;;4.30;2.50;;;15.00;99.90;;;;;;5042624;28;20462;-81
2022/10/10 09:17:47;;;;;;;7.57;2.53;;;15.10;99.90;;;;;;5040784;28;20573;-79
2022/10/10 09:20:36;;;;;;;6.30;2.13;;;15.20;99.90;;;;;;5059074;28;20474;-82
2022/10/10 09:23:08;;;;;;;4.73;2.60;;;15.20;99.90;;;;;;5043830;28;20477;-80
2022/10/10 09:25:39;;;;;;;4.30;1.90;;;15.30;99.90;;;;;;5062501;28;20489;-80
2022/10/10 09:28:11;;;;;;;6.17;2.33;;;15.50;99.90;;;;;;5042285;28;20472;-82
2022/10/10 09:30:43;;;;;;;4.40;2.27;;;15.60;99.90;;;;;;5042983;28;20905;-80
2022/10/10 09:33:23;;;;;;;4.90;2.10;;;15.60;99.90;;;;;;5063216;28;20466;-81
2022/10/10 09:35:53;;;;;;;4.30;1.93;;;15.70;99.90;;;;;;5063934;28;20463;-82
2022/10/10 09:38:33;;;;;;;3.77;2.23;;;15.80;99.90;;;;;;5062614;28;20510;-81
2022/10/10 09:41:05;;;;;;;4.43;2.53;;;16.10;99.90;;;;;;5061972;28;20432;-84
2022/10/10 09:43:34;;;;;;;5.23;3.00;;;16.20;99.90;;;;;;5062212;28;20955;-80
2022/10/10 09:46:01;;;;;;;7.47;2.23;;;16.10;99.90;;;;;;5062426;28;20526;-81
2022/10/10 09:48:33;;;;;;;6.07;2.43;;;16.30;99.90;;;;;;5062831;28;20979;-80
2022/10/10 09:51:01;;;;;;;4.77;2.70;;;16.30;99.90;;;;;;5063245;28;20442;-81
2022/10/10 09:53:27;;;;;;;6.07;2.70;;;16.40;99.90;;;;;;5062799;28;20822;-79
2022/10/10 09:55:55;;;;;;;6.43;2.57;;;16.50;99.90;;;;;;5062703;28;20486;-81
2022/10/10 09:58:29;;;;;;;4.80;2.70;;;16.50;99.90;;;;;;5061699;28;20474;-80
2022/10/10 10:01:12;;;;;;;7.07;2.60;;;16.60;99.90;;;;;;5062138;28;20459;-81
2022/10/10 10:03:41;;;;;;;3.70;1.97;;;16.90;99.90;;;;;;5062969;28;20455;-81
2022/10/10 10:06:11;;;;;;;5.30;2.37;;;17.20;99.90;;;;;;5063592;28;20466;-82
2022/10/10 10:08:39;;;;;;;3.90;2.37;;;17.50;99.90;;;;;;5062475;28;20492;-81
2022/10/10 10:11:18;;;;;;;5.43;2.00;;;17.90;99.90;;;;;;5066000;28;20532;-81
2022/10/10 10:13:53;;;;;;;6.80;2.00;;;18.20;99.90;;;;;;5069405;28;20454;-79
2022/10/10 10:16:20;;;;;;;7.50;3.10;;;18.50;99.90;;;;;;5068485;28;20458;-83
2022/10/10 10:18:48;;;;;;;10.10;2.17;;;19.00;99.90;;;;;;5069021;28;20482;-81
2022/10/10 10:21:18;;;;;;;7.40;2.63;;;19.20;99.90;;;;;;5067655;28;20543;-80
2022/10/10 10:23:52;;;;;;;6.77;2.70;;;19.20;99.90;;;;;;5058274;28;20968;-80
2022/10/10 10:26:22;;;;;;;3.67;1.87;;;19.20;99.90;;;;;;5056254;28;20451;-82
2022/10/10 10:28:53;;;;;;;5.73;1.80;;;19.30;99.90;;;;;;5067491;28;20868;-80
2022/10/10 10:31:31;;;;;;;7.97;1.97;;;19.40;99.90;;;;;;5069733;28;20477;-80
2022/10/10 10:34:10;;;;;;;9.50;2.47;;;19.60;99.90;;;;;;5069811;28;20456;-81
2022/10/10 10:36:47;;;;;;;4.43;2.10;;;19.60;99.90;;;;;;5069803;28;20466;-82
2022/10/10 10:39:28;;;;;;;8.90;2.40;;;19.30;99.90;;;;;;5069749;28;20493;-82
2022/10/10 10:42:00;;;;;;;6.13;2.30;;;19.50;99.90;;;;;;5069461;28;20451;-81
2022/10/10 10:44:36;;;;;;;4.83;1.87;;;19.60;99.90;;;;;;5069671;28;20469;-81
2022/10/10 10:47:24;;;;;;;8.27;3.57;;;19.60;99.90;;;;;;5069551;28;20537;-82
2022/10/10 10:50:02;;;;;;;4.87;2.90;;;19.70;99.90;;;;;;5069516;28;20490;-81
2022/10/10 10:52:45;;;;;;;7.77;3.00;;;19.80;99.90;;;;;;5065290;28;20568;-80
2022/10/10 10:55:22;;;;;;;6.50;2.20;;;19.90;99.90;;;;;;5070267;28;20462;-80
2022/10/10 10:58:25;;;;;;;;;;;;;;;;;;;;;
2022/10/10 11:00:56;;;;;;;8.60;2.60;;;21.00;99.90;;;;;;5064928;28;20455;-79
2022/10/10 11:03:35;;;;;;;9.60;2.93;;;21.00;99.90;;;;;;5053593;28;20464;-80
2022/10/10 11:06:12;;;;;;;7.00;2.37;;;21.30;99.90;;;;;;5068993;28;20465;-81
2022/10/10 11:08:54;;;;;;;5.13;2.40;;;21.10;99.90;;;;;;5067669;28;20483;-81
2022/10/10 11:11:35;;;;;;;6.40;2.17;;;21.60;99.90;;;;;;5052483;28;20462;-80
2022/10/10 11:14:08;;;;;;;5.33;1.90;;;21.60;99.90;;;;;;5056597;28;20538;-80
2022/10/10 11:16:40;;;;;;;11.93;2.77;;;21.00;99.90;;;;;;5067469;28;20443;-79
2022/10/10 11:19:18;;;;;;;5.40;2.90;;;21.10;99.90;;;;;;5066093;28;21039;-81
2022/10/10 11:21:49;;;;;;;6.70;2.20;;;21.00;99.90;;;;;;5071095;28;20444;-82
2022/10/10 11:24:24;;;;;;;5.77;2.17;;;21.20;99.90;;;;;;5067059;28;20531;-81
2022/10/10 11:26:55;;;;;;;5.70;2.50;;;21.60;99.90;;;;;;5066665;28;20806;-81
2022/10/10 11:29:27;;;;;;;6.83;2.80;;;21.70;99.90;;;;;;5046161;28;20518;-80
2022/10/10 11:31:57;;;;;;;6.43;2.20;;;21.60;99.90;;;;;;5067052;28;20458;-80
2022/10/10 11:34:29;;;;;;;7.13;2.90;;;21.60;99.90;;;;;;5067830;28;20444;-82
2022/10/10 11:37:04;;;;;;;5.40;2.10;;;21.50;99.90;;;;;;5067695;28;20471;-80
2022/10/10 11:39:38;;;;;;;6.67;2.30;;;21.50;99.90;;;;;;5047732;28;20520;-81
2022/10/10 11:42:14;;;;;;;11.77;2.47;;;21.20;99.90;;;;;;5063414;28;20454;-80
2022/10/10 11:44:46;;;;;;;6.47;2.30;;;21.40;99.90;;;;;;5067826;28;20456;-80
2022/10/10 11:47:18;;;;;;;5.40;2.17;;;21.40;99.90;;;;;;5067345;28;20455;-81
2022/10/10 11:49:54;;;;;;;6.43;2.27;;;21.20;99.90;;;;;;5066967;28;20476;-82
2022/10/10 11:52:29;;;;;;;7.47;1.90;;;21.00;99.90;;;;;;5065458;28;20452;-80
2022/10/10 11:55:05;;;;;;;6.10;2.57;;;20.60;99.90;;;;;;5067753;28;20487;-82
2022/10/10 11:57:37;;;;;;;8.70;2.33;;;20.40;99.90;;;;;;5067581;28;20530;-83
2022/10/10 12:00:07;;;;;;;7.23;2.20;;;20.30;99.90;;;;;;5066263;28;20854;-82
2022/10/10 12:02:39;;;;;;;6.50;2.10;;;20.10;99.90;;;;;;5067226;28;20516;-82
2022/10/10 12:05:07;;;;;;;5.07;2.60;;;20.10;99.90;;;;;;5066930;28;20539;-81
2022/10/10 12:07:41;;;;;;;8.70;2.80;;;20.30;99.90;;;;;;5066988;28;20460;-81
2022/10/10 12:10:11;;;;;;;6.10;2.20;;;20.40;99.90;;;;;;5066230;28;20557;-82
2022/10/10 12:12:42;;;;;;;5.30;2.30;;;20.30;99.90;;;;;;5065314;28;20913;-80
2022/10/10 12:15:10;;;;;;;6.10;2.03;;;20.20;99.90;;;;;;5067007;28;20482;-81
2022/10/10 12:17:42;;;;;;;6.17;2.43;;;20.20;99.90;;;;;;5065670;28;20452;-81
2022/10/10 12:20:29;;;;;;;12.27;3.30;;;20.20;99.90;;;;;;5065701;28;20468;-81
2022/10/10 12:23:19;;;;;;;10.10;2.73;;;20.00;99.90;;;;;;5066646;28;20450;-82
2022/10/10 12:25:46;;;;;;;8.60;2.20;;;20.00;99.90;;;;;;5066120;28;20494;-82
2022/10/10 12:28:33;;;;;;;6.40;2.37;;;19.80;99.90;;;;;;5056789;28;20477;-80
2022/10/10 12:31:35;;;;;;;8.50;2.80;;;19.50;99.90;;;;;;5063943;28;20494;-82
2022/10/10 12:34:15;;;;;;;9.37;3.47;;;19.40;99.90;;;;;;5063183;28;20478;-80
2022/10/10 12:36:55;;;;;;;9.57;2.80;;;19.30;99.90;;;;;;5064021;28;20435;-81
2022/10/10 12:39:58;;;;;;;5.63;2.80;;;19.00;99.90;;;;;;5061751;28;20527;-80
2022/10/10 12:42:30;;;;;;;5.57;2.67;;;19.10;99.90;;;;;;5063611;28;20493;-79
2022/10/10 12:44:57;;;;;;;5.97;2.93;;;19.10;99.90;;;;;;5065356;28;20462;-82
2022/10/10 12:47:40;;;;;;;10.90;3.30;;;19.20;99.90;;;;;;5062543;28;20530;-83
2022/10/10 12:50:21;;;;;;;13.10;3.83;;;19.20;99.90;;;;;;5062591;28;20487;-82
2022/10/10 12:52:52;;;;;;;8.47;2.80;;;19.10;99.90;;;;;;5050710;28;20469;-82
2022/10/10 12:55:23;;;;;;;10.23;3.03;;;19.40;99.90;;;;;;5065582;28;20493;-81
2022/10/10 12:57:54;;;;;;;8.53;3.17;;;19.60;99.90;;;;;;5065171;28;20483;-81
2022/10/10 13:00:24;;;;;;;7.37;3.13;;;19.80;99.90;;;;;;5061993;28;20448;-80
2022/10/10 13:02:56;;;;;;;8.63;3.20;;;19.90;99.90;;;;;;5060933;28;20455;-79
2022/10/10 13:05:27;;;;;;;7.67;2.53;;;20.00;99.90;;;;;;5063629;28;20447;-83
2022/10/10 13:08:00;;;;;;;9.17;2.70;;;20.40;99.90;;;;;;5058460;28;21191;-84